Time;durP1;ratioP1;P1;durP2;ratioP2;P2;SDS_P1;SDS_P2;PMS_P1;PMS_P2;Temp;Humidity;BMP_temperature;BMP_pressure;BME280_temperature;BME280_humidity;BME280_pressure;Samples;Min_cycle;Max_cycle;Signal;HPM_P1;HPM_P2
2023/07/30 00:02:20;;;;;;;13.68;5.43;;;18.30;99.90;;;;;;5065009;28;20038;-81
2023/07/30 00:04:47;;;;;;;12.75;5.70;;;18.20;99.90;;;;;;5092840;28;20035;-80
2023/07/30 00:07:13;;;;;;;14.80;4.70;;;18.20;99.90;;;;;;5100627;28;20047;-81
2023/07/30 00:09:39;;;;;;;13.25;5.40;;;18.20;99.90;;;;;;5079460;28;20334;-80
2023/07/30 00:12:06;;;;;;;13.13;5.20;;;18.30;99.90;;;;;;5086000;28;20031;-81
2023/07/30 00:14:32;;;;;;;20.95;6.75;;;18.30;99.90;;;;;;5097042;28;20091;-80
2023/07/30 00:16:58;;;;;;;17.15;6.28;;;18.40;99.90;;;;;;5080234;28;20035;-82
2023/07/30 00:19:24;;;;;;;12.48;5.80;;;18.40;99.90;;;;;;5080363;28;20042;-81
2023/07/30 00:21:49;;;;;;;15.10;6.22;;;18.50;99.90;;;;;;5071971;28;20020;-81
2023/07/30 00:24:15;;;;;;;14.02;5.63;;;18.40;99.90;;;;;;5083725;28;20071;-81
2023/07/30 00:26:41;;;;;;;16.75;6.30;;;18.40;99.90;;;;;;5097442;28;20043;-81
2023/07/30 00:29:07;;;;;;;18.90;5.80;;;18.40;99.90;;;;;;5086083;28;20140;-81
2023/07/30 00:31:33;;;;;;;14.60;5.75;;;18.40;99.90;;;;;;5048676;28;20039;-80
2023/07/30 00:33:58;;;;;;;9.93;5.32;;;18.40;99.90;;;;;;5096329;28;20047;-81
2023/07/30 00:36:24;;;;;;;13.27;5.70;;;18.40;99.90;;;;;;5069191;28;20028;-81
2023/07/30 00:38:50;;;;;;;12.18;5.78;;;18.40;99.90;;;;;;5102336;28;20051;-82
2023/07/30 00:41:16;;;;;;;13.30;6.03;;;18.40;99.90;;;;;;5084513;28;20054;-83
2023/07/30 00:43:41;;;;;;;10.18;4.50;;;18.40;99.90;;;;;;5078588;28;20066;-82
2023/07/30 00:46:08;;;;;;;14.20;5.10;;;18.30;99.90;;;;;;5098724;28;20058;-81
2023/07/30 00:48:34;;;;;;;15.45;5.07;;;18.30;99.90;;;;;;5085163;28;20062;-81
2023/07/30 00:51:00;;;;;;;14.23;5.07;;;18.20;99.90;;;;;;5081731;28;20066;-82
2023/07/30 00:53:29;;;;;;;15.18;4.97;;;18.30;99.90;;;;;;5084412;28;20201;-82
2023/07/30 00:55:56;;;;;;;12.55;5.50;;;18.30;99.90;;;;;;5101275;28;20031;-82
2023/07/30 00:58:22;;;;;;;10.82;5.53;;;18.30;99.90;;;;;;5113903;28;20028;-81
2023/07/30 01:00:48;;;;;;;11.48;5.80;;;18.20;99.90;;;;;;5102650;28;20031;-80
2023/07/30 01:03:14;;;;;;;16.48;6.13;;;18.30;99.90;;;;;;5065798;28;20187;-81
2023/07/30 01:05:40;;;;;;;15.32;5.68;;;18.30;99.90;;;;;;5067227;28;20106;-79
2023/07/30 01:08:06;;;;;;;11.65;5.47;;;18.30;99.90;;;;;;5089166;28;20035;-79
2023/07/30 01:10:34;;;;;;;16.88;5.95;;;18.30;99.90;;;;;;5064421;28;20039;-80
2023/07/30 01:13:02;;;;;;;15.18;5.50;;;18.30;99.90;;;;;;5080107;28;20058;-80
2023/07/30 01:15:29;;;;;;;13.88;5.47;;;18.30;99.90;;;;;;5090152;28;20072;-82
2023/07/30 01:17:55;;;;;;;15.40;6.45;;;18.20;99.90;;;;;;5065535;28;20038;-80
2023/07/30 01:20:21;;;;;;;13.30;5.40;;;18.30;99.90;;;;;;5065738;28;20087;-80
2023/07/30 01:22:47;;;;;;;14.35;5.38;;;18.30;99.90;;;;;;5074468;28;20172;-80
2023/07/30 01:25:16;;;;;;;14.43;5.13;;;18.30;99.90;;;;;;5073952;28;20043;-80
2023/07/30 01:27:51;;;;;;;14.82;5.25;;;18.30;99.90;;;;;;5056437;28;20039;-81
2023/07/30 01:30:37;;;;;;;17.95;5.35;;;18.40;99.90;;;;;;5075801;28;20281;-81
2023/07/30 01:33:04;;;;;;;11.45;5.55;;;18.40;99.90;;;;;;5075755;28;20038;-81
2023/07/30 01:35:31;;;;;;;13.73;5.15;;;18.30;99.90;;;;;;5062680;28;20193;-81
2023/07/30 01:38:02;;;;;;;11.32;5.15;;;18.40;99.90;;;;;;5076559;28;20093;-82
2023/07/30 01:40:28;;;;;;;16.95;6.05;;;18.40;99.90;;;;;;5062083;28;20035;-81
2023/07/30 01:42:54;;;;;;;18.60;5.20;;;18.50;99.90;;;;;;5079974;28;20146;-83
2023/07/30 01:45:20;;;;;;;16.35;5.68;;;18.50;99.90;;;;;;5077129;28;20038;-82
2023/07/30 01:47:46;;;;;;;12.50;5.15;;;18.50;99.90;;;;;;5063332;28;20059;-81
2023/07/30 01:50:12;;;;;;;13.93;4.28;;;18.50;99.90;;;;;;5086999;28;20044;-84
2023/07/30 01:52:38;;;;;;;15.18;5.05;;;18.50;99.90;;;;;;5071472;28;20040;-83
2023/07/30 01:55:04;;;;;;;17.20;5.75;;;18.50;99.90;;;;;;5066126;28;20039;-81
2023/07/30 01:57:30;;;;;;;18.70;5.78;;;18.50;99.90;;;;;;5065072;28;20028;-82
2023/07/30 01:59:56;;;;;;;19.58;5.78;;;18.60;99.90;;;;;;5049292;28;20115;-81
2023/07/30 02:02:21;;;;;;;17.85;5.25;;;18.60;99.90;;;;;;5114245;28;20023;-82
2023/07/30 02:04:47;;;;;;;14.48;5.50;;;18.50;99.90;;;;;;5081937;28;20028;-81
2023/07/30 02:07:13;;;;;;;15.73;5.53;;;18.60;99.90;;;;;;5064590;28;20105;-82
2023/07/30 02:09:39;;;;;;;14.38;5.30;;;18.70;99.90;;;;;;5066697;28;20044;-81
2023/07/30 02:12:05;;;;;;;19.50;5.72;;;18.60;99.90;;;;;;5057846;28;20055;-80
2023/07/30 02:14:31;;;;;;;16.45;5.28;;;18.70;99.90;;;;;;5075624;28;20028;-80
2023/07/30 02:16:57;;;;;;;14.15;5.05;;;18.70;99.90;;;;;;5060021;28;20027;-81
2023/07/30 02:19:23;;;;;;;18.92;5.40;;;18.80;99.90;;;;;;5095020;28;20599;-81
2023/07/30 02:21:49;;;;;;;16.55;5.40;;;18.70;99.90;;;;;;5051297;28;20032;-81
2023/07/30 02:24:14;;;;;;;15.77;5.47;;;18.70;99.90;;;;;;5060294;28;20028;-80
2023/07/30 02:26:40;;;;;;;18.33;5.75;;;18.80;99.90;;;;;;5057296;28;20098;-80
2023/07/30 02:29:06;;;;;;;20.23;5.32;;;18.90;99.90;;;;;;5059510;28;20412;-80
2023/07/30 02:31:32;;;;;;;19.02;5.63;;;18.90;99.90;;;;;;5045528;28;20027;-79
2023/07/30 02:33:58;;;;;;;16.60;5.18;;;18.90;99.90;;;;;;5094869;28;20069;-80
2023/07/30 02:36:24;;;;;;;16.02;5.63;;;18.80;99.90;;;;;;5081135;28;20032;-82
2023/07/30 02:38:50;;;;;;;16.92;5.18;;;18.90;99.90;;;;;;5099764;28;20036;-81
2023/07/30 02:41:17;;;;;;;16.30;5.40;;;18.80;99.90;;;;;;5099026;28;20036;-80
2023/07/30 02:43:43;;;;;;;19.63;5.32;;;18.80;99.90;;;;;;5081222;28;20039;-80
2023/07/30 02:46:09;;;;;;;15.73;5.10;;;18.80;99.90;;;;;;5082589;28;20027;-80
2023/07/30 02:48:35;;;;;;;18.08;5.05;;;18.80;99.90;;;;;;5076535;28;20055;-80
2023/07/30 02:51:00;;;;;;;15.32;5.72;;;18.90;99.90;;;;;;5076133;28;20032;-79
2023/07/30 02:53:26;;;;;;;19.90;5.47;;;18.70;99.90;;;;;;5094954;28;20195;-80
2023/07/30 02:55:52;;;;;;;20.10;5.00;;;18.70;99.90;;;;;;5066151;28;20051;-80
2023/07/30 02:58:18;;;;;;;16.42;5.00;;;18.60;99.90;;;;;;5070172;28;20027;-81
2023/07/30 03:00:43;;;;;;;15.43;5.90;;;18.70;99.90;;;;;;5084889;28;20191;-81
2023/07/30 03:03:09;;;;;;;17.02;5.18;;;18.70;99.90;;;;;;5069550;28;20019;-81
2023/07/30 03:05:35;;;;;;;14.98;5.10;;;18.60;99.90;;;;;;5082290;28;20066;-81
2023/07/30 03:08:01;;;;;;;16.35;5.03;;;18.70;99.90;;;;;;5070013;28;21319;-80
2023/07/30 03:10:27;;;;;;;21.80;5.53;;;18.60;99.90;;;;;;5086379;28;20024;-80
2023/07/30 03:12:53;;;;;;;17.45;5.10;;;18.60;99.90;;;;;;5088045;28;20028;-83
2023/07/30 03:15:18;;;;;;;19.55;5.10;;;18.50;99.90;;;;;;5070377;28;20109;-81
2023/07/30 03:17:44;;;;;;;16.08;5.65;;;18.50;99.90;;;;;;5051117;28;20036;-82
2023/07/30 03:20:10;;;;;;;16.27;5.03;;;18.50;99.90;;;;;;5067871;28;20090;-81
2023/07/30 03:22:36;;;;;;;14.20;5.20;;;18.50;99.90;;;;;;5067037;28;20032;-81
2023/07/30 03:25:02;;;;;;;16.08;5.68;;;18.50;99.90;;;;;;5053173;28;20233;-81
2023/07/30 03:27:27;;;;;;;13.63;5.10;;;18.40;99.90;;;;;;5062497;28;20421;-80
2023/07/30 03:29:53;;;;;;;19.33;5.22;;;18.50;99.90;;;;;;5043875;28;20031;-82
2023/07/30 03:32:19;;;;;;;16.25;5.10;;;18.40;99.90;;;;;;5062170;28;20200;-81
2023/07/30 03:34:45;;;;;;;17.65;5.55;;;18.50;99.90;;;;;;5045474;28;20150;-81
2023/07/30 03:37:11;;;;;;;19.38;5.25;;;18.40;99.90;;;;;;5062773;28;20035;-80
2023/07/30 03:39:37;;;;;;;18.98;5.40;;;18.30;99.90;;;;;;5074390;28;20640;-81
2023/07/30 03:42:02;;;;;;;17.30;5.57;;;18.40;99.90;;;;;;5077873;28;20226;-80
2023/07/30 03:44:28;;;;;;;21.25;5.50;;;18.40;99.90;;;;;;5059974;28;20023;-83
2023/07/30 03:46:54;;;;;;;16.80;5.05;;;18.40;99.90;;;;;;5063566;28;20031;-80
2023/07/30 03:49:19;;;;;;;14.45;4.55;;;18.40;99.90;;;;;;5060846;28;20325;-80
2023/07/30 03:51:45;;;;;;;17.10;4.90;;;18.40;99.90;;;;;;5060149;28;20078;-81
2023/07/30 03:54:11;;;;;;;18.00;5.13;;;18.30;99.90;;;;;;5094165;28;20353;-81
2023/07/30 03:56:37;;;;;;;16.65;5.40;;;18.30;99.90;;;;;;5077246;28;20058;-81
2023/07/30 03:59:03;;;;;;;14.43;4.70;;;18.30;99.90;;;;;;5063728;28;20049;-81
2023/07/30 04:01:30;;;;;;;15.93;6.10;;;18.30;99.90;;;;;;5080400;28;20124;-81
2023/07/30 04:03:56;;;;;;;14.35;4.72;;;18.30;99.90;;;;;;5064926;28;20062;-82
2023/07/30 04:06:22;;;;;;;14.05;5.28;;;18.20;99.90;;;;;;5078254;28;20038;-81
2023/07/30 04:08:47;;;;;;;12.93;5.07;;;18.30;99.90;;;;;;5075251;28;20321;-82
2023/07/30 04:11:13;;;;;;;16.83;4.47;;;18.20;99.90;;;;;;5058022;28;20031;-83
2023/07/30 04:13:40;;;;;;;14.70;5.25;;;18.30;99.90;;;;;;5075651;28;20027;-81
2023/07/30 04:16:06;;;;;;;11.35;4.93;;;18.20;99.90;;;;;;5063108;28;20031;-81
2023/07/30 04:18:32;;;;;;;11.88;5.07;;;18.20;99.90;;;;;;5061063;28;20072;-83
2023/07/30 04:20:58;;;;;;;11.88;4.95;;;18.30;99.90;;;;;;5081048;28;20038;-82
2023/07/30 04:23:23;;;;;;;16.45;4.40;;;18.30;99.90;;;;;;5050136;28;20034;-82
2023/07/30 04:25:50;;;;;;;13.55;5.53;;;18.30;99.90;;;;;;5079664;28;20118;-82
2023/07/30 04:28:16;;;;;;;16.92;5.13;;;18.30;99.90;;;;;;5065495;28;20032;-82
2023/07/30 04:30:42;;;;;;;14.15;4.35;;;18.30;99.90;;;;;;5065282;28;20206;-82
2023/07/30 04:33:08;;;;;;;21.63;5.07;;;18.20;99.90;;;;;;5074708;28;20043;-81
2023/07/30 04:35:33;;;;;;;16.30;4.90;;;18.20;99.90;;;;;;5045869;28;20062;-81
2023/07/30 04:37:59;;;;;;;15.30;4.70;;;18.20;99.90;;;;;;5074714;28;20046;-81
2023/07/30 04:40:25;;;;;;;19.58;5.72;;;18.30;99.90;;;;;;5078186;28;20039;-79
2023/07/30 04:42:50;;;;;;;14.80;4.60;;;18.30;99.90;;;;;;5076751;28;20031;-81
2023/07/30 04:45:16;;;;;;;14.25;4.40;;;18.40;99.90;;;;;;5080418;28;20054;-84
2023/07/30 04:47:42;;;;;;;17.65;4.50;;;18.40;99.90;;;;;;5064894;28;20066;-80
2023/07/30 04:50:08;;;;;;;15.57;4.70;;;18.50;99.90;;;;;;5101651;28;20064;-80
2023/07/30 04:52:34;;;;;;;14.38;4.68;;;18.40;99.90;;;;;;5078083;28;20031;-80
2023/07/30 04:55:00;;;;;;;17.42;5.03;;;18.60;99.90;;;;;;5094623;28;20043;-80
2023/07/30 04:57:26;;;;;;;13.65;4.07;;;18.60;99.90;;;;;;5058355;28;20213;-81
2023/07/30 04:59:52;;;;;;;15.25;4.18;;;18.50;99.90;;;;;;5073260;28;20034;-79
2023/07/30 05:02:18;;;;;;;14.63;5.00;;;18.60;99.90;;;;;;5074701;28;20213;-79
2023/07/30 05:04:44;;;;;;;15.82;4.50;;;18.60;99.90;;;;;;5059846;28;20218;-81
2023/07/30 05:07:09;;;;;;;17.17;4.50;;;18.80;99.90;;;;;;5073340;28;20032;-81
2023/07/30 05:09:36;;;;;;;16.13;5.00;;;18.80;99.90;;;;;;5089295;28;20027;-79
2023/07/30 05:12:01;;;;;;;10.18;4.20;;;18.60;99.90;;;;;;5074883;28;20328;-80
2023/07/30 05:14:27;;;;;;;21.33;4.65;;;18.80;99.90;;;;;;5071917;28;20032;-79
2023/07/30 05:16:53;;;;;;;13.93;4.53;;;18.80;99.90;;;;;;5077270;28;20066;-80
2023/07/30 05:19:19;;;;;;;16.55;4.70;;;18.80;99.90;;;;;;5075578;28;20030;-80
2023/07/30 05:21:44;;;;;;;14.40;4.38;;;18.90;99.90;;;;;;5060737;28;20028;-80
2023/07/30 05:24:10;;;;;;;10.75;4.03;;;18.80;99.90;;;;;;5074986;28;20067;-79
2023/07/30 05:26:36;;;;;;;16.52;4.43;;;18.80;99.90;;;;;;5078059;28;20429;-81
2023/07/30 05:29:03;;;;;;;16.92;4.15;;;19.00;99.90;;;;;;5059411;28;20035;-80
2023/07/30 05:31:28;;;;;;;13.40;3.90;;;19.10;99.90;;;;;;5077706;28;20039;-80
2023/07/30 05:33:54;;;;;;;11.75;4.05;;;18.90;99.90;;;;;;5062665;28;20118;-80
2023/07/30 05:36:20;;;;;;;8.18;3.25;;;19.20;99.90;;;;;;5073288;28;20058;-82
2023/07/30 05:38:46;;;;;;;15.88;4.30;;;19.20;99.90;;;;;;5065636;28;20020;-80
2023/07/30 05:41:12;;;;;;;14.07;3.80;;;19.10;99.90;;;;;;5067778;28;20319;-79
2023/07/30 05:43:37;;;;;;;11.32;3.70;;;19.20;99.90;;;;;;5082675;28;20030;-80
2023/07/30 05:46:03;;;;;;;11.00;3.40;;;19.10;99.90;;;;;;5058132;28;20059;-80
2023/07/30 05:48:29;;;;;;;9.77;3.45;;;19.20;99.90;;;;;;5074516;28;20044;-81
2023/07/30 05:50:55;;;;;;;9.98;3.47;;;19.30;99.90;;;;;;5054299;28;20035;-80
2023/07/30 05:53:21;;;;;;;14.57;4.40;;;19.40;99.90;;;;;;5059711;28;20095;-82
2023/07/30 05:55:46;;;;;;;7.88;3.17;;;19.40;99.90;;;;;;5058478;28;20109;-79
2023/07/30 05:58:12;;;;;;;11.35;3.78;;;19.60;99.90;;;;;;5056552;28;20032;-80
2023/07/30 06:00:38;;;;;;;10.05;3.40;;;19.60;99.90;;;;;;5075403;28;20250;-80
2023/07/30 06:03:03;;;;;;;10.95;3.60;;;19.50;99.90;;;;;;5078003;28;20028;-82
2023/07/30 06:05:29;;;;;;;12.02;3.67;;;19.50;99.90;;;;;;5094146;28;20099;-82
2023/07/30 06:07:55;;;;;;;10.32;4.07;;;19.50;99.90;;;;;;5063825;28;20032;-80
2023/07/30 06:10:21;;;;;;;10.50;3.63;;;19.50;99.90;;;;;;5060464;28;20047;-81
2023/07/30 06:12:46;;;;;;;11.35;3.47;;;19.50;99.90;;;;;;5067576;28;20081;-80
2023/07/30 06:15:12;;;;;;;12.45;3.08;;;19.60;99.90;;;;;;5049425;28;20090;-81
2023/07/30 06:17:38;;;;;;;11.95;3.55;;;19.60;99.90;;;;;;5077776;28;20115;-80
2023/07/30 06:20:05;;;;;;;13.18;3.58;;;19.80;99.90;;;;;;5074697;28;20063;-79
2023/07/30 06:22:30;;;;;;;13.45;4.00;;;19.80;99.90;;;;;;5074581;28;20064;-80
2023/07/30 06:24:56;;;;;;;10.70;3.55;;;19.70;99.90;;;;;;5044428;28;20020;-79
2023/07/30 06:27:22;;;;;;;11.73;3.30;;;19.80;99.90;;;;;;5046834;28;20036;-80
2023/07/30 06:29:48;;;;;;;15.55;4.13;;;19.80;99.90;;;;;;5074633;28;20036;-80
2023/07/30 06:32:21;;;;;;;14.40;4.18;;;19.70;99.90;;;;;;5060056;28;20438;-82
2023/07/30 06:34:47;;;;;;;11.35;3.28;;;19.80;99.90;;;;;;5094835;28;20048;-82
2023/07/30 06:37:13;;;;;;;12.30;3.35;;;19.80;99.90;;;;;;5050212;28;20027;-82
2023/07/30 06:39:38;;;;;;;10.02;3.65;;;19.80;99.90;;;;;;5064849;28;20040;-82
2023/07/30 06:42:09;;;;;;;9.52;2.92;;;19.80;99.90;;;;;;5082220;28;20234;-83
2023/07/30 06:44:35;;;;;;;10.40;3.40;;;19.90;99.90;;;;;;5079639;28;20110;-81
2023/07/30 06:47:01;;;;;;;11.05;2.95;;;19.90;99.90;;;;;;5065283;28;20081;-82
2023/07/30 06:49:27;;;;;;;14.30;3.38;;;20.10;99.90;;;;;;5048980;28;20243;-83
2023/07/30 06:51:53;;;;;;;10.25;3.50;;;20.20;99.90;;;;;;5082399;28;20044;-80
2023/07/30 06:54:19;;;;;;;10.50;3.03;;;20.20;99.90;;;;;;5085872;28;20054;-82
2023/07/30 06:56:46;;;;;;;9.77;3.95;;;20.10;99.90;;;;;;5083629;28;20028;-82
2023/07/30 06:59:12;;;;;;;10.38;3.45;;;20.30;99.90;;;;;;5080398;28;20349;-82
2023/07/30 07:01:45;;;;;;;11.23;3.35;;;20.20;99.90;;;;;;5080413;28;20065;-83
2023/07/30 07:04:11;;;;;;;15.70;3.80;;;20.30;99.90;;;;;;5082165;28;20035;-83
2023/07/30 07:06:37;;;;;;;12.35;3.40;;;20.40;99.90;;;;;;5077764;28;20055;-82
2023/07/30 07:09:03;;;;;;;9.43;3.40;;;20.50;99.90;;;;;;5078583;28;20040;-82
2023/07/30 07:11:29;;;;;;;15.40;3.85;;;20.60;99.90;;;;;;5056885;28;20091;-82
2023/07/30 07:13:54;;;;;;;12.05;3.55;;;20.40;99.90;;;;;;5084707;28;20060;-82
2023/07/30 07:16:21;;;;;;;7.55;3.67;;;20.50;99.90;;;;;;5085973;28;20353;-82
2023/07/30 07:18:48;;;;;;;11.35;3.40;;;20.50;99.90;;;;;;5084646;28;20083;-82
2023/07/30 07:21:14;;;;;;;13.13;3.55;;;20.70;99.90;;;;;;5065668;28;20028;-83
2023/07/30 07:23:40;;;;;;;12.23;3.15;;;20.60;99.90;;;;;;5080055;28;20034;-83
2023/07/30 07:26:06;;;;;;;11.30;3.40;;;20.20;99.90;;;;;;5045523;28;20040;-82
2023/07/30 07:28:33;;;;;;;8.00;3.13;;;20.80;99.90;;;;;;5076528;28;20024;-83
2023/07/30 07:30:59;;;;;;;11.50;3.10;;;20.90;99.90;;;;;;5055671;28;20036;-82
2023/07/30 07:33:25;;;;;;;7.38;2.78;;;20.80;99.90;;;;;;5066655;28;20145;-82
2023/07/30 07:35:51;;;;;;;10.10;2.72;;;20.80;99.90;;;;;;5059209;28;20036;-83
2023/07/30 07:38:17;;;;;;;9.90;2.78;;;21.00;99.90;;;;;;5076726;28;20039;-83
2023/07/30 07:40:43;;;;;;;10.27;2.67;;;21.10;99.90;;;;;;5061530;28;20027;-83
2023/07/30 07:43:10;;;;;;;9.65;3.00;;;21.40;99.90;;;;;;5079444;28;20441;-82
2023/07/30 07:45:35;;;;;;;10.60;2.90;;;21.50;99.90;;;;;;5064866;28;20028;-84
2023/07/30 07:48:01;;;;;;;10.23;3.53;;;21.70;99.90;;;;;;5061712;28;20106;-82
2023/07/30 07:50:27;;;;;;;13.35;3.05;;;21.60;99.90;;;;;;5058185;28;20112;-83
2023/07/30 07:52:53;;;;;;;9.20;3.35;;;21.10;99.90;;;;;;5047517;28;20071;-83
2023/07/30 07:55:20;;;;;;;8.73;2.38;;;21.60;99.90;;;;;;5066138;28;20036;-84
2023/07/30 07:57:46;;;;;;;8.85;2.65;;;21.80;99.90;;;;;;5057559;28;20020;-82
2023/07/30 08:00:12;;;;;;;9.68;2.70;;;22.10;99.90;;;;;;5052240;28;20107;-82
2023/07/30 08:02:38;;;;;;;6.50;2.13;;;22.20;99.90;;;;;;5067276;28;20114;-82
2023/07/30 08:05:04;;;;;;;8.10;2.42;;;22.30;99.90;;;;;;5063903;28;20036;-82
2023/07/30 08:07:30;;;;;;;7.55;2.03;;;22.00;99.90;;;;;;5067273;28;20028;-83
2023/07/30 08:10:02;;;;;;;6.78;2.25;;;22.20;99.90;;;;;;5084160;28;20073;-82
2023/07/30 08:12:30;;;;;;;8.70;2.00;;;22.00;99.90;;;;;;5102749;28;20024;-83
2023/07/30 08:14:57;;;;;;;10.45;2.72;;;21.70;99.90;;;;;;5081580;28;20314;-84
2023/07/30 08:17:23;;;;;;;7.45;2.28;;;21.70;99.90;;;;;;5073065;28;20389;-83
2023/07/30 08:19:49;;;;;;;4.05;1.88;;;21.60;99.90;;;;;;5070991;28;20028;-84
2023/07/30 08:22:14;;;;;;;8.55;2.10;;;21.50;99.90;;;;;;5084368;28;20058;-83
2023/07/30 08:24:40;;;;;;;7.57;2.03;;;21.50;99.90;;;;;;5067869;28;20032;-83
2023/07/30 08:27:06;;;;;;;5.65;2.15;;;21.50;99.90;;;;;;5063087;28;20039;-84
2023/07/30 08:29:38;;;;;;;7.15;2.10;;;21.50;99.90;;;;;;5065291;28;20111;-83
2023/07/30 08:32:04;;;;;;;9.25;2.78;;;21.50;99.90;;;;;;5092335;28;20106;-83
2023/07/30 08:34:30;;;;;;;6.03;1.70;;;21.50;99.90;;;;;;5064697;28;20642;-83
2023/07/30 08:36:56;;;;;;;8.32;2.38;;;21.60;99.90;;;;;;5064415;28;20055;-82
2023/07/30 08:39:21;;;;;;;11.25;2.33;;;21.70;99.90;;;;;;5062856;28;20324;-83
2023/07/30 08:41:47;;;;;;;4.93;1.90;;;21.90;99.90;;;;;;5098855;28;20024;-82
2023/07/30 08:44:13;;;;;;;5.28;1.83;;;21.90;99.90;;;;;;5083060;28;20028;-81
2023/07/30 08:46:45;;;;;;;6.30;1.60;;;21.80;99.90;;;;;;5080045;28;20156;-82
2023/07/30 08:49:11;;;;;;;7.30;1.77;;;21.70;99.90;;;;;;5051903;28;20067;-82
2023/07/30 08:51:38;;;;;;;8.68;1.70;;;21.60;99.90;;;;;;5080281;28;20490;-83
2023/07/30 08:54:04;;;;;;;7.78;2.25;;;21.50;99.90;;;;;;5058869;28;20062;-83
2023/07/30 08:56:31;;;;;;;8.27;1.90;;;21.40;99.90;;;;;;5072961;28;20025;-82
2023/07/30 08:58:59;;;;;;;5.90;2.13;;;21.20;99.90;;;;;;5060416;28;20075;-83
2023/07/30 09:01:31;;;;;;;7.05;2.17;;;21.20;99.90;;;;;;5044853;28;20028;-83
2023/07/30 09:04:00;;;;;;;3.80;1.48;;;21.10;99.90;;;;;;5044687;28;20053;-83
2023/07/30 09:06:26;;;;;;;4.53;1.58;;;21.20;99.90;;;;;;5044437;28;20126;-81
2023/07/30 09:08:53;;;;;;;9.82;1.90;;;21.30;99.90;;;;;;5063173;28;20043;-84
2023/07/30 09:11:20;;;;;;;6.53;1.90;;;21.50;99.90;;;;;;5080808;28;20037;-85
2023/07/30 09:13:46;;;;;;;6.18;1.88;;;21.50;99.90;;;;;;5081331;28;20056;-83
2023/07/30 09:16:13;;;;;;;5.45;2.03;;;21.70;99.90;;;;;;5079406;28;20020;-83
2023/07/30 09:18:44;;;;;;;5.22;1.83;;;21.90;99.90;;;;;;5061381;28;20024;-84
2023/07/30 09:21:13;;;;;;;4.82;1.48;;;22.20;99.90;;;;;;5075957;28;20032;-83
2023/07/30 09:23:44;;;;;;;6.03;2.08;;;22.30;99.90;;;;;;5046456;28;20315;-83
2023/07/30 09:26:11;;;;;;;5.78;1.63;;;22.30;99.90;;;;;;5043041;28;20311;-84
2023/07/30 09:28:39;;;;;;;4.95;1.95;;;22.20;99.90;;;;;;5061628;28;20039;-83
2023/07/30 09:31:06;;;;;;;5.47;1.75;;;22.00;99.90;;;;;;5039424;28;20025;-83
2023/07/30 09:33:33;;;;;;;5.43;1.65;;;21.90;99.90;;;;;;5061948;28;20032;-83
2023/07/30 09:36:02;;;;;;;5.78;1.50;;;21.60;99.90;;;;;;5052820;28;20037;-83
2023/07/30 09:38:30;;;;;;;6.97;1.80;;;21.70;99.90;;;;;;5066682;28;20091;-84
2023/07/30 09:41:01;;;;;;;7.63;1.85;;;21.50;99.90;;;;;;5031238;28;20020;-83
2023/07/30 09:43:32;;;;;;;5.20;1.65;;;21.40;99.90;;;;;;5079898;28;20116;-84
2023/07/30 09:46:03;;;;;;;6.40;2.20;;;21.40;99.90;;;;;;5063580;28;20032;-78
2023/07/30 09:48:34;;;;;;;6.90;1.92;;;21.60;99.90;;;;;;5055381;28;20208;-83
2023/07/30 09:51:05;;;;;;;5.57;1.88;;;21.50;99.90;;;;;;5046642;28;20044;-82
2023/07/30 09:53:34;;;;;;;5.53;2.00;;;21.60;99.90;;;;;;5066058;28;20036;-85
2023/07/30 09:56:04;;;;;;;5.55;1.98;;;21.50;99.90;;;;;;5065205;28;20353;-83
2023/07/30 09:58:32;;;;;;;6.30;1.88;;;21.50;99.90;;;;;;5063555;28;20346;-82
2023/07/30 10:01:02;;;;;;;5.35;1.70;;;21.30;99.90;;;;;;5064371;28;20082;-82
2023/07/30 10:03:28;;;;;;;3.88;1.58;;;21.50;99.90;;;;;;5064432;28;20112;-85
2023/07/30 10:06:00;;;;;;;4.30;1.60;;;21.60;99.90;;;;;;5099980;28;20103;-81
2023/07/30 10:08:28;;;;;;;6.88;1.95;;;21.60;99.90;;;;;;5083017;28;20032;-84
2023/07/30 10:10:55;;;;;;;5.05;1.83;;;21.70;99.90;;;;;;5094808;28;20035;-84
2023/07/30 10:13:21;;;;;;;6.93;1.83;;;21.80;99.90;;;;;;5099089;28;20039;-82
2023/07/30 10:15:47;;;;;;;4.95;1.30;;;21.50;99.90;;;;;;5066134;28;20071;-84
2023/07/30 10:18:14;;;;;;;5.70;1.77;;;21.40;99.90;;;;;;5082544;28;20020;-83
2023/07/30 10:20:40;;;;;;;5.82;1.85;;;21.20;99.90;;;;;;5072885;28;20450;-83
2023/07/30 10:23:06;;;;;;;4.13;1.30;;;21.30;99.90;;;;;;5049830;28;20035;-84
2023/07/30 10:25:49;;;;;;;5.43;1.80;;;21.50;99.90;;;;;;5064309;28;20040;-81
2023/07/30 10:28:30;;;;;;;2.85;1.10;;;21.70;99.90;;;;;;5059835;28;20100;-81
2023/07/30 10:30:57;;;;;;;3.17;1.27;;;22.00;99.90;;;;;;5069924;28;20028;-82
2023/07/30 10:33:23;;;;;;;3.45;1.13;;;22.10;99.90;;;;;;5062215;28;20037;-81
2023/07/30 10:35:55;;;;;;;5.22;1.50;;;21.80;99.90;;;;;;5070978;28;20035;-83
2023/07/30 10:38:28;;;;;;;4.78;1.65;;;22.30;99.90;;;;;;5097293;28;20105;-83
2023/07/30 10:41:16;;;;;;;2.88;1.30;;;22.20;99.90;;;;;;5069410;28;20408;-83
2023/07/30 10:43:44;;;;;;;5.50;1.58;;;22.40;99.90;;;;;;5079420;28;20332;-82
2023/07/30 10:46:11;;;;;;;7.75;1.70;;;22.30;99.90;;;;;;5067657;28;20035;-82
2023/07/30 10:48:42;;;;;;;5.65;1.42;;;22.20;99.90;;;;;;5071271;28;20083;-80
2023/07/30 10:51:16;;;;;;;6.03;1.65;;;21.90;99.90;;;;;;5062911;28;20041;-81
2023/07/30 10:53:45;;;;;;;6.60;2.00;;;21.50;99.90;;;;;;5078741;28;20032;-79
2023/07/30 10:56:13;;;;;;;3.78;1.60;;;21.20;99.90;;;;;;5052194;28;20045;-80
2023/07/30 10:58:39;;;;;;;7.97;1.70;;;21.00;99.90;;;;;;5061792;28;20029;-79
2023/07/30 11:01:06;;;;;;;4.03;1.60;;;21.20;99.90;;;;;;5061946;28;20131;-79
2023/07/30 11:03:32;;;;;;;5.20;1.48;;;21.60;99.90;;;;;;5048546;28;20032;-80
2023/07/30 11:05:59;;;;;;;5.78;1.50;;;21.80;99.90;;;;;;5062258;28;20036;-79
2023/07/30 11:08:38;;;;;;;5.00;1.88;;;21.80;99.90;;;;;;5062888;28;20036;-79
2023/07/30 11:11:05;;;;;;;3.95;1.77;;;21.70;99.90;;;;;;5045472;28;20051;-79
2023/07/30 11:13:40;;;;;;;5.53;1.63;;;22.10;99.90;;;;;;5061592;28;20037;-80
2023/07/30 11:16:08;;;;;;;5.55;2.03;;;22.60;99.90;;;;;;5061795;28;20045;-82
2023/07/30 11:18:35;;;;;;;4.63;1.80;;;23.00;99.90;;;;;;5048572;28;20097;-80
2023/07/30 11:21:09;;;;;;;5.32;2.00;;;23.20;99.90;;;;;;5067045;28;20436;-81
2023/07/30 11:23:36;;;;;;;5.47;1.87;;;23.10;99.90;;;;;;5046124;28;20055;-79
2023/07/30 11:26:03;;;;;;;5.50;2.00;;;22.90;99.90;;;;;;5064884;28;20288;-78
2023/07/30 11:28:29;;;;;;;7.07;2.05;;;23.20;99.90;;;;;;5061607;28;20033;-77
2023/07/30 11:31:04;;;;;;;7.38;2.22;;;23.80;99.90;;;;;;5081840;28;20103;-79
2023/07/30 11:33:30;;;;;;;9.23;2.33;;;23.40;99.90;;;;;;5064655;28;20060;-79
2023/07/30 11:35:56;;;;;;;7.72;2.38;;;23.80;99.90;;;;;;5031746;28;20036;-80
2023/07/30 11:38:24;;;;;;;7.72;2.22;;;24.20;99.90;;;;;;5071818;28;20567;-81
2023/07/30 11:40:51;;;;;;;5.45;1.90;;;24.10;99.90;;;;;;5027945;28;20029;-79
2023/07/30 11:43:18;;;;;;;8.38;2.03;;;24.40;99.90;;;;;;5045854;28;20041;-78
2023/07/30 11:45:44;;;;;;;8.23;2.10;;;24.70;99.90;;;;;;5028398;28;20024;-78
2023/07/30 11:48:11;;;;;;;8.38;2.30;;;24.60;99.90;;;;;;5068238;28;20056;-80
2023/07/30 11:51:03;;;;;;;9.27;2.90;;;24.80;99.90;;;;;;5081034;28;20234;-78
2023/07/30 11:53:46;;;;;;;6.25;2.22;;;24.70;99.90;;;;;;5092895;28;20040;-77
2023/07/30 11:56:26;;;;;;;5.78;1.70;;;24.10;99.90;;;;;;5079173;28;20040;-81
2023/07/30 11:59:11;;;;;;;8.55;2.15;;;24.20;99.90;;;;;;5080509;28;20043;-82
2023/07/30 12:01:37;;;;;;;5.00;1.60;;;24.50;99.90;;;;;;5080285;28;20100;-82
2023/07/30 12:04:05;;;;;;;6.30;2.13;;;24.80;99.90;;;;;;5031426;28;20040;-81
2023/07/30 12:06:43;;;;;;;5.45;1.85;;;25.10;99.90;;;;;;5087877;28;20042;-82
2023/07/30 12:09:14;;;;;;;6.82;1.60;;;25.20;99.90;;;;;;5100723;28;20132;-81
2023/07/30 12:11:59;;;;;;;7.43;1.80;;;24.80;99.90;;;;;;5048088;28;20067;-76
2023/07/30 12:14:49;;;;;;;5.55;1.60;;;24.50;99.90;;;;;;5080973;28;20028;-79
2023/07/30 12:17:15;;;;;;;8.23;1.90;;;24.10;99.90;;;;;;5079580;28;20032;-78
2023/07/30 12:19:41;;;;;;;5.25;2.00;;;23.00;99.90;;;;;;5029477;28;20040;-77
2023/07/30 12:22:07;;;;;;;6.15;1.70;;;22.30;99.90;;;;;;5063268;28;20214;-79
2023/07/30 12:24:33;;;;;;;5.45;1.73;;;21.70;99.90;;;;;;5074665;28;20031;-78
2023/07/30 12:26:59;;;;;;;8.27;1.80;;;21.60;99.90;;;;;;5083476;28;20060;-79
2023/07/30 12:29:25;;;;;;;6.82;2.03;;;21.30;99.90;;;;;;5073102;28;20189;-80
2023/07/30 12:31:55;;;;;;;5.78;1.77;;;21.40;99.90;;;;;;5081232;28;20093;-79
2023/07/30 12:34:23;;;;;;;5.45;1.83;;;21.30;99.90;;;;;;5082844;28;20277;-80
2023/07/30 12:36:48;;;;;;;5.50;2.00;;;21.40;99.90;;;;;;5083078;28;20028;-79
2023/07/30 12:39:14;;;;;;;3.70;1.40;;;21.80;99.90;;;;;;5082228;28;20206;-79
2023/07/30 12:41:40;;;;;;;5.07;1.35;;;22.20;99.90;;;;;;5082512;28;20032;-79